Aviation Digital Data Service (ADDS)

Output produced by METARs form (1748 UTC 25 March 2019)
found at http://www.aviationweather.gov/metar/data/
 
Forecast for: RODN (KADENA (USAFB-NA, JP)
Text: TAF RODN 251600Z 2516/2622 32010G15KT 9999 SCT025 BKN050 QNH3000INS
Forecast period: 1600 UTC 25 March 2019 to 0500 UTC 26 March 2019
Forecast type: FROM: standard forecast or significant change
Winds: from the NW (320 degrees) at 12 MPH (10 knots; 5.1 m/s)
gusting to 17 MPH (15 knots; 7.7 m/s)
Visibility: 6 or more miles 10+ km)
Ceiling: 5000 feet AGL
Clouds: scattered clouds at 2500 feet AGL
broken clouds at 5000 feet AGL
Weather: no significant weather forecast for this period
Text: BECMG 2605/2606 03012KT 9999 SCT025 SCT050 QNH3010INS TX21/2516Z TN18/2600Z
Forecast period: 0500 to 2200 UTC 26 March 2019
Forecast type: BECOMING: Conditions expected to become as follows by 0600 UTC 26 March 2019
Winds: from the NNE (30 degrees) at 14 MPH (12 knots; 6.2 m/s)
Visibility: 6 or more miles 10+ km)
Ceiling: at least 12,000 feet AGL
Clouds: scattered clouds at 2500 feet AGL
scattered clouds at 5000 feet AGL
Weather: no significant weather forecast for this period